createdAt,value
2022-10-13T00:00:49.573Z,7.82
2022-10-13T00:04:05.776Z,7.81
2022-10-13T00:07:08.619Z,7.80
2022-10-13T00:10:11.572Z,7.79
2022-10-13T00:13:15.030Z,7.78
2022-10-13T00:16:20.651Z,7.75
2022-10-13T00:19:23.422Z,7.72
2022-10-13T00:22:27.712Z,7.71
2022-10-13T00:25:30.543Z,7.72
2022-10-13T00:28:33.438Z,7.72
2022-10-13T00:31:36.338Z,7.69
2022-10-13T00:34:40.392Z,7.68
2022-10-13T00:37:43.209Z,7.65
2022-10-13T00:40:56.365Z,7.64
2022-10-13T00:44:26.874Z,7.61
2022-10-13T00:47:40.718Z,7.58
2022-10-13T00:50:44.189Z,7.55
2022-10-13T00:53:48.471Z,7.51
2022-10-13T00:56:53.536Z,7.49
2022-10-13T00:59:57.035Z,7.47
2022-10-13T01:03:01.018Z,7.46
2022-10-13T01:06:05.781Z,7.44
2022-10-13T01:09:08.626Z,7.42
2022-10-13T01:12:20.187Z,7.40
2022-10-13T01:15:39.702Z,7.36
2022-10-13T01:18:59.876Z,7.32
2022-10-13T01:22:21.420Z,7.28
2022-10-13T01:25:30.393Z,7.24
2022-10-13T01:28:53.409Z,7.23
2022-10-13T01:32:06.245Z,7.20
2022-10-13T01:35:36.002Z,7.18
2022-10-13T01:38:49.803Z,7.12
2022-10-13T01:42:00.867Z,7.10
2022-10-13T01:45:04.494Z,7.10
2022-10-13T01:48:08.897Z,7.09
2022-10-13T01:51:20.739Z,7.07
2022-10-13T01:54:27.132Z,7.06
2022-10-13T01:57:38.241Z,7.05
2022-10-13T02:00:48.824Z,7.02
2022-10-13T02:04:10.553Z,7.00
2022-10-13T02:07:19.858Z,7.00
2022-10-13T02:10:31.045Z,6.98
2022-10-13T02:13:36.833Z,6.98
2022-10-13T02:16:45.439Z,6.96
2022-10-13T02:19:48.571Z,6.96
2022-10-13T02:22:57.939Z,6.95
2022-10-13T02:26:00.999Z,6.92
2022-10-13T02:29:12.475Z,6.90
2022-10-13T02:32:15.372Z,6.89
2022-10-13T02:35:18.558Z,6.89
2022-10-13T02:38:21.545Z,6.89
2022-10-13T02:41:24.704Z,6.89
2022-10-13T02:44:27.586Z,6.88
2022-10-13T02:47:30.538Z,6.88
2022-10-13T02:50:33.405Z,6.84
2022-10-13T02:53:36.230Z,6.81
2022-10-13T02:56:39.098Z,6.78
2022-10-13T02:59:41.918Z,6.77
2022-10-13T03:02:44.710Z,6.76
2022-10-13T03:05:47.587Z,6.76
2022-10-13T03:08:50.718Z,6.74
2022-10-13T03:11:53.818Z,6.72
2022-10-13T03:14:57.504Z,6.73
2022-10-13T03:18:00.329Z,6.73
2022-10-13T03:21:06.490Z,6.72
2022-10-13T03:24:09.500Z,6.71
2022-10-13T03:27:12.533Z,6.70
2022-10-13T03:30:15.414Z,6.67
2022-10-13T03:33:18.297Z,6.66
2022-10-13T03:36:21.122Z,6.65
2022-10-13T03:39:25.397Z,6.64
2022-10-13T03:42:28.221Z,6.63
2022-10-13T03:45:31.436Z,6.63
2022-10-13T03:48:36.170Z,6.63
2022-10-13T03:51:39.819Z,6.62
2022-10-13T03:54:42.619Z,6.63
2022-10-13T03:57:45.480Z,6.61
2022-10-13T04:00:48.440Z,6.60
2022-10-13T04:03:54.316Z,6.59
2022-10-13T04:06:57.587Z,6.58
2022-10-13T04:10:00.434Z,6.57
2022-10-13T04:13:05.672Z,6.55
2022-10-13T04:16:18.938Z,6.53
2022-10-13T04:19:21.887Z,6.52
2022-10-13T04:22:24.694Z,6.49
2022-10-13T04:25:27.604Z,6.47
2022-10-13T04:28:30.636Z,6.46
2022-10-13T04:31:34.370Z,6.45
2022-10-13T04:34:37.407Z,6.44
2022-10-13T04:37:44.974Z,6.43
2022-10-13T04:40:48.324Z,6.43
2022-10-13T04:43:52.276Z,6.41
2022-10-13T04:46:55.486Z,6.38
2022-10-13T04:49:58.275Z,6.36
2022-10-13T04:53:01.146Z,6.35
2022-10-13T04:56:09.671Z,6.32
2022-10-13T04:59:12.641Z,6.31
2022-10-13T05:02:15.540Z,6.32
2022-10-13T05:05:18.444Z,6.33
2022-10-13T05:08:21.718Z,6.34
2022-10-13T05:11:26.631Z,6.34
2022-10-13T05:14:31.110Z,6.35
2022-10-13T05:17:36.288Z,6.35
2022-10-13T05:20:44.019Z,6.36
2022-10-13T05:23:47.123Z,6.36
2022-10-13T05:26:49.924Z,6.37
2022-10-13T05:29:52.782Z,6.38
2022-10-13T05:32:55.713Z,6.39
2022-10-13T05:36:15.078Z,6.40
2022-10-13T05:39:18.004Z,6.42
2022-10-13T05:42:21.191Z,6.43
2022-10-13T05:45:24.485Z,6.45
2022-10-13T05:48:27.979Z,6.46
2022-10-13T05:51:37.196Z,6.47
2022-10-13T05:54:46.200Z,6.50
2022-10-13T05:57:52.268Z,6.53
2022-10-13T06:00:55.798Z,6.56
2022-10-13T06:04:03.996Z,6.59
2022-10-13T06:07:08.407Z,6.63
2022-10-13T06:10:11.931Z,6.67
2022-10-13T06:13:14.831Z,6.70
2022-10-13T06:16:17.908Z,6.73
2022-10-13T06:19:21.835Z,6.78
2022-10-13T06:22:24.709Z,6.81
2022-10-13T06:25:27.557Z,6.85
2022-10-13T06:28:30.400Z,6.90
2022-10-13T06:31:33.269Z,6.94
2022-10-13T06:34:36.055Z,6.99
2022-10-13T06:37:39.198Z,7.03
2022-10-13T06:40:46.172Z,7.08
2022-10-13T06:43:49.626Z,7.13
2022-10-13T06:46:53.054Z,7.19
2022-10-13T06:49:56.379Z,7.25
2022-10-13T06:52:59.439Z,7.31
2022-10-13T06:56:04.570Z,7.37
2022-10-13T06:59:07.446Z,7.44
2022-10-13T07:02:11.422Z,7.50
2022-10-13T07:05:14.370Z,7.57
2022-10-13T07:08:17.888Z,7.63
2022-10-13T07:11:20.890Z,7.69
2022-10-13T07:14:27.532Z,7.74
2022-10-13T07:17:30.314Z,7.81
2022-10-13T07:20:33.758Z,7.88
2022-10-13T07:23:36.560Z,7.94
2022-10-13T07:26:39.330Z,8.01
2022-10-13T07:29:42.240Z,8.07
2022-10-13T07:32:45.131Z,8.13
2022-10-13T07:35:47.925Z,8.19
2022-10-13T07:38:50.833Z,8.25
2022-10-13T07:41:53.741Z,8.28
2022-10-13T07:44:56.621Z,8.34
2022-10-13T07:48:01.851Z,8.40
2022-10-13T07:51:07.542Z,8.46
2022-10-13T07:54:11.030Z,8.51
2022-10-13T07:57:14.101Z,8.56
2022-10-13T08:00:17.527Z,8.62
2022-10-13T08:03:20.377Z,8.67
2022-10-13T08:06:23.305Z,8.72
2022-10-13T08:09:29.991Z,8.77
2022-10-13T08:12:35.475Z,8.83
2022-10-13T08:15:42.868Z,8.88
2022-10-13T08:18:46.419Z,8.94
2022-10-13T08:21:58.317Z,8.98
2022-10-13T08:25:02.507Z,9.04
2022-10-13T08:28:22.982Z,9.10
2022-10-13T08:31:29.064Z,9.17
2022-10-13T08:34:34.031Z,9.23
2022-10-13T08:37:36.982Z,9.32
2022-10-13T08:40:39.939Z,9.43
2022-10-13T08:44:24.759Z,9.54
2022-10-13T08:47:48.306Z,9.67
2022-10-13T08:50:54.971Z,9.82
2022-10-13T08:53:59.220Z,9.94
2022-10-13T08:57:02.072Z,10.05
2022-10-13T09:00:07.257Z,10.17
2022-10-13T09:03:29.043Z,10.26
2022-10-13T09:06:36.827Z,10.36
2022-10-13T09:09:40.099Z,10.44
2022-10-13T09:12:42.987Z,10.52
2022-10-13T09:15:50.318Z,10.58
2022-10-13T09:18:53.116Z,10.65
2022-10-13T09:22:13.127Z,10.71
2022-10-13T09:25:20.056Z,10.76
2022-10-13T09:28:27.669Z,10.80
2022-10-13T09:31:32.312Z,10.83
2022-10-13T09:34:35.116Z,10.86
2022-10-13T09:37:41.627Z,10.89
2022-10-13T09:40:58.036Z,10.91
2022-10-13T09:44:11.745Z,10.94
2022-10-13T09:47:21.674Z,10.98
2022-10-13T09:50:27.813Z,11.02
2022-10-13T09:53:37.786Z,11.05
2022-10-13T09:56:49.347Z,11.08
2022-10-13T09:59:58.934Z,11.12
2022-10-13T10:03:10.712Z,11.17
2022-10-13T10:06:15.891Z,11.22
2022-10-13T10:09:41.590Z,11.26
2022-10-13T10:12:45.309Z,11.31
2022-10-13T10:16:20.714Z,11.38
2022-10-13T10:19:55.387Z,11.47
2022-10-13T10:23:11.234Z,11.62
2022-10-13T10:26:20.750Z,11.82
2022-10-13T10:29:39.054Z,12.07
2022-10-13T10:33:07.901Z,12.41
2022-10-13T10:36:19.913Z,12.69
2022-10-13T10:39:41.378Z,12.90
2022-10-13T10:42:58.994Z,13.09
2022-10-13T10:46:01.856Z,13.20
2022-10-13T10:49:35.173Z,13.26
2022-10-13T10:53:00.891Z,13.28
2022-10-13T10:56:07.789Z,13.28
2022-10-13T10:59:37.270Z,13.28
2022-10-13T11:02:55.308Z,13.29
2022-10-13T11:06:20.863Z,13.25
2022-10-13T11:09:42.745Z,13.21
2022-10-13T11:13:26.927Z,13.19
2022-10-13T11:16:40.103Z,13.16
2022-10-13T11:19:49.682Z,13.13
2022-10-13T11:22:58.522Z,13.11
2022-10-13T11:26:20.709Z,13.08
2022-10-13T11:29:51.523Z,13.06
2022-10-13T11:32:57.129Z,13.05
2022-10-13T11:36:27.728Z,13.05
2022-10-13T11:39:59.576Z,13.07
2022-10-13T11:43:37.348Z,13.06
2022-10-13T11:46:52.423Z,13.06
2022-10-13T11:50:04.285Z,13.05
2022-10-13T11:53:11.956Z,13.06
2022-10-13T11:56:31.871Z,13.06
2022-10-13T11:59:37.674Z,13.07
2022-10-13T12:02:49.111Z,13.08
2022-10-13T12:05:53.580Z,13.10
2022-10-13T12:08:56.434Z,13.11
2022-10-13T12:12:13.213Z,13.13
2022-10-13T12:15:31.196Z,13.15
2022-10-13T12:18:38.374Z,13.18
2022-10-13T12:21:56.329Z,13.22
2022-10-13T12:25:05.356Z,13.28
2022-10-13T12:28:19.250Z,13.32
2022-10-13T12:31:27.773Z,13.34
2022-10-13T12:34:34.526Z,13.34
2022-10-13T12:37:37.452Z,13.33
2022-10-13T12:40:40.599Z,13.34
2022-10-13T12:43:44.691Z,13.37
2022-10-13T12:46:53.476Z,13.38
2022-10-13T12:50:23.676Z,13.40
2022-10-13T12:53:28.829Z,13.40
2022-10-13T12:56:32.505Z,13.41
2022-10-13T12:59:43.049Z,13.42
2022-10-13T13:03:04.030Z,13.42
2022-10-13T13:06:13.435Z,13.43
2022-10-13T13:09:22.228Z,13.43
2022-10-13T13:12:28.028Z,13.43
2022-10-13T13:15:36.379Z,13.42
2022-10-13T13:18:41.794Z,13.41
2022-10-13T13:21:44.722Z,13.39
2022-10-13T13:24:49.444Z,13.39
2022-10-13T13:27:53.088Z,13.38
2022-10-13T13:30:55.856Z,13.39
2022-10-13T13:33:58.581Z,13.41
2022-10-13T13:37:02.638Z,13.43
2022-10-13T13:40:07.392Z,13.43
2022-10-13T13:43:10.125Z,13.43
2022-10-13T13:46:17.232Z,13.44
2022-10-13T13:49:19.987Z,13.45
2022-10-13T13:52:25.340Z,13.46
2022-10-13T13:55:29.665Z,13.46
2022-10-13T13:58:32.429Z,13.47
2022-10-13T14:01:35.794Z,13.48
2022-10-13T14:04:38.562Z,13.47
2022-10-13T14:07:41.440Z,13.46
2022-10-13T14:10:44.297Z,13.45
2022-10-13T14:13:48.085Z,13.43
2022-10-13T14:16:52.719Z,13.40
2022-10-13T14:19:55.608Z,13.40
2022-10-13T14:22:58.370Z,13.38
2022-10-13T14:26:05.914Z,13.36
2022-10-13T14:29:08.731Z,13.35
2022-10-13T14:32:12.176Z,13.32
2022-10-13T14:35:15.025Z,13.31
2022-10-13T14:38:18.250Z,13.31
2022-10-13T14:41:24.419Z,13.30
2022-10-13T14:44:27.217Z,13.29
2022-10-13T14:47:29.949Z,13.27
2022-10-13T14:50:32.765Z,13.25
2022-10-13T14:53:41.429Z,13.24
2022-10-13T14:56:44.915Z,13.21
2022-10-13T14:59:47.753Z,13.19
2022-10-13T15:02:50.528Z,13.17
2022-10-13T15:05:54.187Z,13.14
2022-10-13T15:08:59.461Z,13.11
2022-10-13T15:12:02.764Z,13.07
2022-10-13T15:15:05.991Z,13.04
2022-10-13T15:18:08.727Z,13.01
2022-10-13T15:21:12.148Z,12.96
2022-10-13T15:24:14.916Z,12.93
2022-10-13T15:27:18.281Z,12.89
2022-10-13T15:30:21.049Z,12.86
2022-10-13T15:33:23.900Z,12.83
2022-10-13T15:36:26.724Z,12.78
2022-10-13T15:39:29.589Z,12.74
2022-10-13T15:42:32.692Z,12.71
2022-10-13T15:45:36.038Z,12.65
2022-10-13T15:48:39.312Z,12.60
2022-10-13T15:51:42.173Z,12.55
2022-10-13T15:54:45.072Z,12.50
2022-10-13T15:57:47.946Z,12.45
2022-10-13T16:00:50.736Z,12.40
2022-10-13T16:03:55.245Z,12.34
2022-10-13T16:06:57.993Z,12.29
2022-10-13T16:10:00.990Z,12.23
2022-10-13T16:13:03.917Z,12.18
2022-10-13T16:16:07.604Z,12.13
2022-10-13T16:19:10.482Z,12.08
2022-10-13T16:22:13.567Z,12.04
2022-10-13T16:25:16.795Z,11.98
2022-10-13T16:28:19.718Z,11.94
2022-10-13T16:31:22.769Z,11.90
2022-10-13T16:34:26.108Z,11.88
2022-10-13T16:37:28.926Z,11.83
2022-10-13T16:40:32.477Z,11.81
2022-10-13T16:43:35.760Z,11.77
2022-10-13T16:46:38.814Z,11.75
2022-10-13T16:49:41.992Z,11.73
2022-10-13T16:52:47.256Z,11.70
2022-10-13T16:55:50.262Z,11.68
2022-10-13T16:58:55.679Z,11.66
2022-10-13T17:01:59.443Z,11.64
2022-10-13T17:05:02.382Z,11.62
2022-10-13T17:08:06.464Z,11.62
2022-10-13T17:11:15.706Z,11.60
2022-10-13T17:14:18.648Z,11.60
2022-10-13T17:17:21.732Z,11.61
2022-10-13T17:20:24.880Z,11.60
2022-10-13T17:23:29.262Z,11.61
2022-10-13T17:26:32.489Z,11.61
2022-10-13T17:29:35.276Z,11.61
2022-10-13T17:32:38.913Z,11.62
2022-10-13T17:35:41.757Z,11.63
2022-10-13T17:38:45.255Z,11.64
2022-10-13T17:41:48.133Z,11.65
2022-10-13T17:44:51.059Z,11.67
2022-10-13T17:47:53.943Z,11.69
2022-10-13T17:51:02.732Z,11.71
2022-10-13T17:54:08.233Z,11.72
2022-10-13T17:57:14.510Z,11.75
2022-10-13T18:00:18.095Z,11.78
2022-10-13T18:03:21.552Z,11.81
2022-10-13T18:06:24.485Z,11.82
2022-10-13T18:09:27.326Z,11.83
2022-10-13T18:12:30.117Z,11.84
2022-10-13T18:15:36.876Z,11.84
2022-10-13T18:18:39.876Z,11.85
2022-10-13T18:21:43.046Z,11.85
2022-10-13T18:24:46.347Z,11.85
2022-10-13T18:27:49.205Z,11.84
2022-10-13T18:30:52.051Z,11.84
2022-10-13T18:34:00.678Z,11.85
2022-10-13T18:37:05.656Z,11.86
2022-10-13T18:40:09.003Z,11.89
2022-10-13T18:43:11.848Z,11.91
2022-10-13T18:46:14.836Z,11.92
2022-10-13T18:49:20.608Z,11.92
2022-10-13T18:52:23.507Z,11.92
2022-10-13T18:55:26.404Z,11.92
2022-10-13T18:58:30.549Z,11.91
2022-10-13T19:01:35.139Z,11.89
2022-10-13T19:04:38.312Z,11.88
2022-10-13T19:07:41.345Z,11.86
2022-10-13T19:10:44.180Z,11.84
2022-10-13T19:13:48.369Z,11.82
2022-10-13T19:16:51.312Z,11.80
2022-10-13T19:19:56.352Z,11.78
2022-10-13T19:22:59.222Z,11.74
2022-10-13T19:26:15.254Z,11.72
2022-10-13T19:29:18.417Z,11.70
2022-10-13T19:32:21.357Z,11.66
2022-10-13T19:35:24.300Z,11.63
2022-10-13T19:38:27.361Z,11.60
2022-10-13T19:41:32.349Z,11.58
2022-10-13T19:44:35.376Z,11.57
2022-10-13T19:47:38.373Z,11.56
2022-10-13T19:50:44.138Z,11.54
2022-10-13T19:53:49.484Z,11.54
2022-10-13T19:56:52.534Z,11.54
2022-10-13T19:59:55.444Z,11.52
2022-10-13T20:02:58.362Z,11.52
2022-10-13T20:06:05.845Z,11.51
2022-10-13T20:09:14.705Z,11.50
2022-10-13T20:12:17.598Z,11.49
2022-10-13T20:15:20.623Z,11.48
2022-10-13T20:18:24.040Z,11.45
2022-10-13T20:21:27.749Z,11.43
2022-10-13T20:24:30.659Z,11.41
2022-10-13T20:27:34.037Z,11.40
2022-10-13T20:30:39.468Z,11.38
2022-10-13T20:33:43.401Z,11.36
2022-10-13T20:36:46.314Z,11.33
2022-10-13T20:39:49.199Z,11.31
2022-10-13T20:42:52.716Z,11.31
2022-10-13T20:46:01.254Z,11.30
2022-10-13T20:49:13.073Z,11.29
2022-10-13T20:52:16.571Z,11.28
2022-10-13T20:55:22.366Z,11.28
2022-10-13T20:58:29.879Z,11.28
2022-10-13T21:01:34.681Z,11.28
2022-10-13T21:04:37.620Z,11.29
2022-10-13T21:07:40.932Z,11.29
2022-10-13T21:10:45.265Z,11.28
2022-10-13T21:13:49.653Z,11.29
2022-10-13T21:16:54.226Z,11.30
2022-10-13T21:19:58.309Z,11.30
2022-10-13T21:23:02.218Z,11.30
2022-10-13T21:26:06.877Z,11.29
2022-10-13T21:29:10.072Z,11.30
2022-10-13T21:32:13.034Z,11.31
2022-10-13T21:35:16.597Z,11.32
2022-10-13T21:38:19.520Z,11.30
2022-10-13T21:41:23.562Z,11.31
2022-10-13T21:44:27.932Z,11.29
2022-10-13T21:47:32.500Z,11.28
2022-10-13T21:50:35.612Z,11.25
2022-10-13T21:53:38.445Z,11.23
2022-10-13T21:56:42.428Z,11.23
2022-10-13T21:59:45.668Z,11.22
2022-10-13T22:02:48.533Z,11.22
2022-10-13T22:05:56.408Z,11.22
2022-10-13T22:09:02.460Z,11.23
2022-10-13T22:12:05.690Z,11.22
2022-10-13T22:15:08.902Z,11.24
2022-10-13T22:18:11.768Z,11.24
2022-10-13T22:21:20.750Z,11.24
2022-10-13T22:24:23.616Z,11.24
2022-10-13T22:27:26.501Z,11.24
2022-10-13T22:30:29.389Z,11.24
2022-10-13T22:33:33.728Z,11.26
2022-10-13T22:36:39.920Z,11.26
2022-10-13T22:39:45.314Z,11.28
2022-10-13T22:42:49.440Z,11.28
2022-10-13T22:45:52.428Z,11.28
2022-10-13T22:48:56.369Z,11.27
2022-10-13T22:51:59.588Z,11.27
2022-10-13T22:55:02.446Z,11.27
2022-10-13T22:58:08.380Z,11.27
2022-10-13T23:01:15.170Z,11.27
2022-10-13T23:04:17.994Z,11.27
2022-10-13T23:07:21.425Z,11.28
2022-10-13T23:10:24.598Z,11.28
2022-10-13T23:13:27.462Z,11.29
2022-10-13T23:16:33.092Z,11.29
2022-10-13T23:19:36.528Z,11.30
2022-10-13T23:22:39.613Z,11.28
2022-10-13T23:25:42.491Z,11.28
2022-10-13T23:28:45.405Z,11.28
2022-10-13T23:31:48.349Z,11.29
2022-10-13T23:34:51.245Z,11.28
2022-10-13T23:37:55.851Z,11.28
2022-10-13T23:41:08.200Z,11.28
2022-10-13T23:44:12.370Z,11.27
2022-10-13T23:47:15.266Z,11.26
2022-10-13T23:50:18.108Z,11.26
2022-10-13T23:53:21.625Z,11.26
2022-10-13T23:56:25.348Z,11.26
2022-10-13T23:59:28.230Z,11.26
